Nearby METAR Reports

 

KOXC - Oxford/Waterbury, Connecticut, USA
Distance from station: SE 8mi, 12km
Updated: Fri, 23-Feb-2018 11:51pm EST
Fog, Overcast
Fog, Overcast
 Wind from varies
Wind: varies 5 mph , 7 km/h
Temperature: 36°F , 2°C
Wind Chill: 32°F , 0°C
Dew Point: 36°F , 2°C
Humidity: 100%
Barometer: 30.13 inHg , 1020.3 hPa
Summary: Fog
Clouds: Overcast
Visibility: 1/4 mile , 0.4 km
Cloud details: Overcast 100 ft
2018/02/24 04:51 KOXC 240451Z AUTO VRB04KT 1/4SM FG OVC001 02/02 A3013 RMK AO2 SLP224 T00170017 400171011 FZRANO
KDXR - Danbury, Connecticut, USA
Distance from station: SW 19mi, 30km
Updated: Sat, 24-Feb-2018 12:23am EST
Mist, Overcast
Mist, Overcast
 Wind from W
Wind: W 6 mph , 9 km/h
Temperature: 37°F , 3°C
Wind Chill: 32°F , 0°C
Dew Point: 37°F , 3°C
Humidity: 100%
Barometer: 30.15 inHg , 1021 hPa
Summary: Mist
Clouds: Overcast
Visibility: 1 1/4 miles , 2 km
Cloud details: Overcast 300 ft
2018/02/24 05:23 KDXR 240523Z AUTO 26005KT 1 1/4SM BR OVC003 03/03 A3015 RMK AO2 T00280028
 
KMMK - Meriden, Connecticut, USA
Distance from station: E 20mi, 33km
Updated: Sat, 24-Feb-2018 12:03am EST
Overcast
Overcast
 Wind from S
Wind: S 5 mph , 7 km/h
Temperature: 37°F , 3°C
Wind Chill: 33°F , 1°C
Dew Point: 36°F , 2°C
Humidity: 93%
Barometer: 30.15 inHg , 1021 hPa
Clouds: Overcast
Visibility: 10 miles , 16 km
Cloud details: Overcast 1000 ft
2018/02/24 05:03 KMMK 240503Z AUTO 18004KT 10SM OVC010 03/02 A3015 RMK AO2 T00280022
KBDR - Bridgeport, Connecticut, USA
Distance from station: S 27mi, 44km
Updated: Fri, 23-Feb-2018 11:52pm EST
Fog, Overcast
Fog, Overcast
 Wind from SW
Wind: SW 7 mph , 11 km/h
Temperature: 37°F , 3°C
Wind Chill: 32°F , 0°C
Dew Point: 36°F , 2°C
Humidity: 93%
Barometer: 30.16 inHg , 1021.3 hPa
Summary: Fog
Clouds: Overcast
Visibility: 1/2 mile , 0.8 km
Cloud details: Overcast 200 ft
2018/02/24 04:52 KBDR 240452Z AUTO 23006KT 1/2SM FG VV002 03/02 A3016 RMK AO2 SLP214 T00330022 400330011
 
KHVN - New Haven/Tweed, Connecticut, USA
Distance from station: SE 27mi, 44km
Updated: Fri, 23-Feb-2018 11:53pm EST
Mist, Overcast
Mist, Overcast
 Wind from calm
Wind: Calm
Temperature: 39°F , 4°C
Dew Point: 37°F , 3°C
Humidity: 93%
Barometer: 30.15 inHg , 1021 hPa
Summary: Mist
Clouds: Overcast
Visibility: 6 miles , 10 km
Cloud details: Overcast 400 ft
2018/02/24 04:53 KHVN 240453Z AUTO 00000KT 6SM BR OVC004 04/03 A3015 RMK AO2 SLP209 T00390028 400390006
KHFD - Hartford/Brainar, Connecticut, USA
Distance from station: ENE 32mi, 52km
Updated: Sat, 24-Feb-2018 12:00am EST
Mist, Overcast
Mist, Overcast
 Wind from SSW
Wind: SSW 7 mph , 11 km/h
Temperature: 37°F , 3°C
Wind Chill: 32°F , 0°C
Dew Point: 37°F , 3°C
Humidity: 100%
Barometer: 30.14 inHg , 1020.7 hPa
Summary: Mist
Clouds: Overcast
Visibility: 10 miles , 16 km
Cloud details: Mostly cloudy 1000 ft
Overcast 1500 ft
2018/02/24 05:00 KHFD 240500Z 20006KT 10SM BR BKN010 OVC015 03/03 A3014 RMK AO2 CIG 006V012 T00330028
 
KPOU - Poughkeepsie, New York, USA
Distance from station: W 35mi, 56km
Updated: Sat, 24-Feb-2018 12:29am EST
Mist, Overcast
Mist, Overcast
 Wind from SE
Wind: SE 5 mph , 7 km/h
Temperature: 37°F , 3°C
Wind Chill: 33°F , 1°C
Dew Point: 36°F , 2°C
Humidity: 93%
Barometer: 30.15 inHg , 1021 hPa
Summary: Mist
Clouds: Overcast
Visibility: 6 miles , 10 km
Cloud details: Overcast 500 ft
2018/02/24 05:29 KPOU 240529Z AUTO 13004KT 6SM BR OVC005 03/02 A3015 RMK AO2 CIG 004V010 T00280022
KBDL - Windsor Locks, Connecticut, USA
Distance from station: NE 38mi, 62km
Updated: Sat, 24-Feb-2018 12:35am EST
Mostly cloudy
Mostly cloudy
 Wind from S
Wind: S 9 mph , 15 km/h
Temperature: 37°F , 3°C
Wind Chill: 30°F , -1°C
Dew Point: 37°F , 3°C
Humidity: 100%
Barometer: 30.11 inHg , 1019.6 hPa
Clouds: Mostly cloudy
Visibility: 10 miles , 16 km
Cloud details: Mostly cloudy 1500 ft
2018/02/24 05:35 KBDL 240535Z 18008KT 10SM BKN015 03/03 A3011 RMK AO2 T00280028
 
KSNC - Chester, Connecticut, USA
Distance from station: ESE 39mi, 63km
Updated: Sat, 24-Feb-2018 12:35am EST
Mist, Overcast
Mist, Overcast
 Wind from WSW
Wind: WSW 9 mph , 15 km/h, Gust: 17 mph , 28 km/h
Temperature: 39°F , 4°C
Wind Chill: 33°F , 1°C
Dew Point: 37°F , 3°C
Humidity: 93%
Barometer: 30.12 inHg , 1020 hPa
Summary: Mist
Clouds: Overcast
Visibility: 2 miles , 3 km
Cloud details: Overcast 100 ft
2018/02/24 05:35 KSNC 240535Z AUTO 24008G15KT 210V270 2SM BR OVC001 04/03 A3012 RMK AO2
KHPN - White Plains, New York, USA
Distance from station: SW 42mi, 67km
Updated: Fri, 23-Feb-2018 11:56pm EST
Mist, Overcast
Mist, Overcast
 Wind from W
Wind: W 7 mph , 11 km/h
Temperature: 39°F , 4°C
Wind Chill: 34°F , 1°C
Dew Point: 39°F , 4°C
Humidity: 100%
Barometer: 30.15 inHg , 1021 hPa
Summary: Mist
Clouds: Overcast
Visibility: 1 1/4 miles , 2 km
Cloud details: Overcast 200 ft
2018/02/24 04:56 KHPN 240456Z 28006KT 1 1/4SM BR VV002 04/04 A3015 RMK AO2 SLP215 T00390039 400390006
 
KSWF - Newburgh/Stewart, New York, USA
Distance from station: W 45mi, 72km
Updated: Fri, 23-Feb-2018 11:45pm EST
Overcast
Overcast
 Wind from W
Wind: W 12 mph , 19 km/h
Temperature: 37°F , 3°C
Wind Chill: 29°F , -2°C
Dew Point: 37°F , 3°C
Humidity: 100%
Barometer: 30.16 inHg , 1021.3 hPa
Clouds: Overcast
Visibility: 7 miles , 11 km
Cloud details: Overcast 500 ft
2018/02/24 04:45 KSWF 240445Z 27010KT 7SM OVC005 03/03 A3016
KBAF - Westfield, Massachusetts, USA
Distance from station: NNE 50mi, 80km
Updated: Sat, 24-Feb-2018 12:04am EST
Overcast
Overcast
 Wind from SSE
Wind: SSE 7 mph , 11 km/h
Temperature: 36°F , 2°C
Wind Chill: 30°F , -1°C
Dew Point: 36°F , 2°C
Humidity: 100%
Barometer: 30.09 inHg , 1019 hPa
Clouds: Overcast
Visibility: 10 miles , 16 km
Cloud details: Overcast 1500 ft
2018/02/24 05:04 KBAF 240504Z AUTO 16006KT 10SM OVC015 02/02 A3009 RMK AO2 T00220022